createdAt,value
2023-03-06T00:00:19.108Z,977.31
2023-03-06T00:01:19.090Z,977.31
2023-03-06T00:02:19.053Z,977.29
2023-03-06T00:03:19.069Z,977.27
2023-03-06T00:04:19.033Z,977.28
2023-03-06T00:05:19.028Z,977.28
2023-03-06T00:06:19.025Z,977.26
2023-03-06T00:07:19.014Z,977.26
2023-03-06T00:08:19.002Z,977.25
2023-03-06T00:09:18.989Z,977.25
2023-03-06T00:10:18.976Z,977.25
2023-03-06T00:11:18.959Z,977.22
2023-03-06T00:12:19.000Z,977.20
2023-03-06T00:13:18.941Z,977.19
2023-03-06T00:14:18.939Z,977.19
2023-03-06T00:15:18.912Z,977.18
2023-03-06T00:16:18.959Z,977.17
2023-03-06T00:17:18.888Z,977.17
2023-03-06T00:18:18.919Z,977.17
2023-03-06T00:19:18.878Z,977.16
2023-03-06T00:20:18.856Z,977.13
2023-03-06T00:21:18.846Z,977.12
2023-03-06T00:22:18.837Z,977.12
2023-03-06T00:23:18.840Z,977.12
2023-03-06T00:24:18.868Z,977.12
2023-03-06T00:25:18.828Z,977.10
2023-03-06T00:26:18.811Z,977.09
2023-03-06T00:27:18.804Z,977.10
2023-03-06T00:28:18.801Z,977.08
2023-03-06T00:29:18.778Z,977.06
2023-03-06T00:30:18.797Z,977.04
2023-03-06T00:31:18.801Z,977.04
2023-03-06T00:32:18.822Z,977.04
2023-03-06T00:33:18.722Z,977.04
2023-03-06T00:34:18.726Z,977.01
2023-03-06T00:35:18.791Z,976.99
2023-03-06T00:36:18.707Z,976.98
2023-03-06T00:37:18.701Z,976.97
2023-03-06T00:38:18.674Z,976.95
2023-03-06T00:39:18.673Z,976.92
2023-03-06T00:40:18.681Z,976.90
2023-03-06T00:41:18.689Z,976.88
2023-03-06T00:42:18.666Z,976.89
2023-03-06T00:43:18.623Z,976.87
2023-03-06T00:44:18.628Z,976.87
2023-03-06T00:45:18.620Z,976.88
2023-03-06T00:46:18.618Z,976.87
2023-03-06T00:47:18.597Z,976.85
2023-03-06T00:48:18.595Z,976.85
2023-03-06T00:49:18.570Z,976.84
2023-03-06T00:50:18.582Z,976.85
2023-03-06T00:51:18.568Z,976.84
2023-03-06T00:52:18.568Z,976.82
2023-03-06T00:53:18.539Z,976.82
2023-03-06T00:54:18.530Z,976.81
2023-03-06T00:55:18.512Z,976.80
2023-03-06T00:56:19.957Z,976.78
2023-03-06T00:57:18.490Z,976.75
2023-03-06T00:58:18.506Z,976.72
2023-03-06T00:59:18.473Z,976.68
2023-03-06T01:00:18.465Z,976.67
2023-03-06T01:01:18.465Z,976.65
2023-03-06T01:02:18.485Z,976.64
2023-03-06T01:03:18.431Z,976.63
2023-03-06T01:04:18.443Z,976.61
2023-03-06T01:05:18.406Z,976.60
2023-03-06T01:06:18.404Z,976.59
2023-03-06T01:07:18.413Z,976.58
2023-03-06T01:08:18.389Z,976.56
2023-03-06T01:09:18.377Z,976.58
2023-03-06T01:10:18.372Z,976.58
2023-03-06T01:11:18.342Z,976.59
2023-03-06T01:12:18.367Z,976.58
2023-03-06T01:13:18.309Z,976.56
2023-03-06T01:14:18.311Z,976.56
2023-03-06T01:15:18.316Z,976.56
2023-03-06T01:16:18.312Z,976.55
2023-03-06T01:17:18.299Z,976.54
2023-03-06T01:18:18.321Z,976.51
2023-03-06T01:19:18.263Z,976.51
2023-03-06T01:20:18.249Z,976.50
2023-03-06T01:21:18.238Z,976.49
2023-03-06T01:22:18.224Z,976.47
2023-03-06T01:23:18.211Z,976.45
2023-03-06T01:24:18.255Z,976.43
2023-03-06T01:25:18.192Z,976.43
2023-03-06T01:26:18.190Z,976.42
2023-03-06T01:27:18.184Z,976.42
2023-03-06T01:28:18.188Z,976.41
2023-03-06T01:29:18.177Z,976.39
2023-03-06T01:30:18.191Z,976.37
2023-03-06T01:31:18.204Z,976.35
2023-03-06T01:32:18.190Z,976.33
2023-03-06T01:33:18.119Z,976.31
2023-03-06T01:34:18.120Z,976.30
2023-03-06T01:35:18.127Z,976.29
2023-03-06T01:36:18.114Z,976.27
2023-03-06T01:37:18.078Z,976.26
2023-03-06T01:38:18.062Z,976.25
2023-03-06T01:39:18.064Z,976.23
2023-03-06T01:40:18.045Z,976.22
2023-03-06T01:41:18.064Z,976.20
2023-03-06T01:42:18.022Z,976.19
2023-03-06T01:43:18.023Z,976.18
2023-03-06T01:44:18.024Z,976.17
2023-03-06T01:45:18.012Z,976.16
2023-03-06T01:46:18.030Z,976.14
2023-03-06T01:47:17.970Z,976.13
2023-03-06T01:48:17.975Z,976.12
2023-03-06T01:49:17.972Z,976.11
2023-03-06T01:50:17.946Z,976.11
2023-03-06T01:51:17.939Z,976.10
2023-03-06T01:52:17.972Z,976.09
2023-03-06T01:53:17.918Z,976.08
2023-03-06T01:54:17.924Z,976.08
2023-03-06T01:55:17.912Z,976.08
2023-03-06T01:56:17.899Z,976.07
2023-03-06T01:57:17.912Z,976.05
2023-03-06T01:58:17.880Z,976.03
2023-03-06T01:59:17.845Z,976.02
2023-03-06T02:00:17.852Z,976.00
2023-03-06T02:01:17.912Z,975.99
2023-03-06T02:02:17.879Z,975.99
2023-03-06T02:03:18.080Z,975.99
2023-03-06T02:04:17.843Z,975.98
2023-03-06T02:05:17.799Z,975.97
2023-03-06T02:06:17.784Z,975.96
2023-03-06T02:07:17.782Z,975.94
2023-03-06T02:08:17.810Z,975.92
2023-03-06T02:09:17.780Z,975.91
2023-03-06T02:10:17.760Z,975.89
2023-03-06T02:11:17.857Z,975.87
2023-03-06T02:12:17.747Z,975.86
2023-03-06T02:13:17.736Z,975.85
2023-03-06T02:14:17.749Z,975.83
2023-03-06T02:15:17.705Z,975.81
2023-03-06T02:16:17.796Z,975.79
2023-03-06T02:17:17.686Z,975.78
2023-03-06T02:18:17.673Z,975.76
2023-03-06T02:19:17.671Z,975.76
2023-03-06T02:20:17.702Z,975.76
2023-03-06T02:21:17.655Z,975.75
2023-03-06T02:22:17.647Z,975.74
2023-03-06T02:23:17.616Z,975.73
2023-03-06T02:24:17.639Z,975.72
2023-03-06T02:25:17.603Z,975.70
2023-03-06T02:26:17.627Z,975.68
2023-03-06T02:27:17.577Z,975.67
2023-03-06T02:28:17.644Z,975.67
2023-03-06T02:29:17.565Z,975.66
2023-03-06T02:30:17.552Z,975.66
2023-03-06T02:31:17.604Z,975.66
2023-03-06T02:32:17.556Z,975.65
2023-03-06T02:33:17.525Z,975.65
2023-03-06T02:34:17.539Z,975.65
2023-03-06T02:35:17.558Z,975.65
2023-03-06T02:36:17.513Z,975.64
2023-03-06T02:37:17.482Z,975.62
2023-03-06T02:38:17.477Z,975.62
2023-03-06T02:39:17.461Z,975.60
2023-03-06T02:40:17.431Z,975.60
2023-03-06T02:41:17.490Z,975.59
2023-03-06T02:42:17.433Z,975.58
2023-03-06T02:43:17.402Z,975.56
2023-03-06T02:44:17.389Z,975.55
2023-03-06T02:45:17.395Z,975.53
2023-03-06T02:46:17.421Z,975.52
2023-03-06T02:47:17.356Z,975.51
2023-03-06T02:48:17.344Z,975.49
2023-03-06T02:49:17.337Z,975.48
2023-03-06T02:50:17.349Z,975.47
2023-03-06T02:51:17.302Z,975.47
2023-03-06T02:52:17.316Z,975.46
2023-03-06T02:53:17.295Z,975.45
2023-03-06T02:54:17.283Z,975.43
2023-03-06T02:55:17.274Z,975.42
2023-03-06T02:56:17.297Z,975.39
2023-03-06T02:57:17.263Z,975.37
2023-03-06T02:58:17.250Z,975.36
2023-03-06T02:59:17.238Z,975.35
2023-03-06T03:00:17.231Z,975.35
2023-03-06T03:01:17.273Z,975.35
2023-03-06T03:02:17.218Z,975.35
2023-03-06T03:03:17.195Z,975.36
2023-03-06T03:04:17.206Z,975.35
2023-03-06T03:05:17.158Z,975.34
2023-03-06T03:06:17.165Z,975.34
2023-03-06T03:07:17.170Z,975.33
2023-03-06T03:08:17.135Z,975.32
2023-03-06T03:09:17.113Z,975.31
2023-03-06T03:10:17.107Z,975.32
2023-03-06T03:11:17.126Z,975.33
2023-03-06T03:12:17.113Z,975.33
2023-03-06T03:13:17.125Z,975.32
2023-03-06T03:14:17.082Z,975.32
2023-03-06T03:15:17.074Z,975.32
2023-03-06T03:16:17.146Z,975.31
2023-03-06T03:17:17.051Z,975.29
2023-03-06T03:18:17.074Z,975.29
2023-03-06T03:19:17.019Z,975.27
2023-03-06T03:20:17.018Z,975.25
2023-03-06T03:21:17.021Z,975.24
2023-03-06T03:22:16.983Z,975.23
2023-03-06T03:23:16.988Z,975.22
2023-03-06T03:24:17.045Z,975.21
2023-03-06T03:25:16.973Z,975.20
2023-03-06T03:26:16.977Z,975.19
2023-03-06T03:27:16.934Z,975.18
2023-03-06T03:28:16.934Z,975.17
2023-03-06T03:29:16.911Z,975.16
2023-03-06T03:30:16.964Z,975.15
2023-03-06T03:31:16.915Z,975.15
2023-03-06T03:32:16.924Z,975.14
2023-03-06T03:33:16.872Z,975.12
2023-03-06T03:34:16.880Z,975.11
2023-03-06T03:35:16.867Z,975.11
2023-03-06T03:36:16.902Z,975.10
2023-03-06T03:37:16.838Z,975.09
2023-03-06T03:38:16.845Z,975.08
2023-03-06T03:39:16.821Z,975.07
2023-03-06T03:40:16.844Z,975.05
2023-03-06T03:41:16.802Z,975.03
2023-03-06T03:42:16.858Z,975.02
2023-03-06T03:43:16.771Z,975.01
2023-03-06T03:44:16.770Z,975.00
2023-03-06T03:45:16.772Z,974.99
2023-03-06T03:46:16.789Z,974.99
2023-03-06T03:47:16.729Z,975.00
2023-03-06T03:48:16.765Z,975.01
2023-03-06T03:49:16.718Z,975.02
2023-03-06T03:50:16.716Z,975.02
2023-03-06T03:51:16.710Z,975.02
2023-03-06T03:52:16.705Z,975.03
2023-03-06T03:53:16.687Z,975.02
2023-03-06T03:54:16.711Z,975.01
2023-03-06T03:55:16.644Z,974.99
2023-03-06T03:56:16.655Z,974.97
2023-03-06T03:57:16.640Z,974.95
2023-03-06T03:58:16.632Z,974.95
2023-03-06T03:59:16.611Z,974.94
2023-03-06T04:00:16.737Z,974.94
2023-03-06T04:01:16.602Z,974.93
2023-03-06T04:02:16.636Z,974.93
2023-03-06T04:03:16.582Z,974.93
2023-03-06T04:04:16.575Z,974.93
2023-03-06T04:05:16.595Z,974.93
2023-03-06T04:06:16.544Z,974.93
2023-03-06T04:07:16.514Z,974.93
2023-03-06T04:08:16.514Z,974.93
2023-03-06T04:09:16.498Z,974.92
2023-03-06T04:10:16.548Z,974.90
2023-03-06T04:11:16.476Z,974.88
2023-03-06T04:12:16.483Z,974.85
2023-03-06T04:13:16.466Z,974.85
2023-03-06T04:14:16.480Z,974.83
2023-03-06T04:15:16.453Z,974.83
2023-03-06T04:16:16.510Z,974.83
2023-03-06T04:17:16.441Z,974.84
2023-03-06T04:18:16.427Z,974.85
2023-03-06T04:19:16.406Z,974.84
2023-03-06T04:20:16.429Z,974.85
2023-03-06T04:21:16.424Z,974.85
2023-03-06T04:22:16.395Z,974.84
2023-03-06T04:23:16.354Z,974.83
2023-03-06T04:24:16.347Z,974.82
2023-03-06T04:25:16.337Z,974.81
2023-03-06T04:26:16.334Z,974.80
2023-03-06T04:27:16.371Z,974.78
2023-03-06T04:28:16.337Z,974.77
2023-03-06T04:29:16.325Z,974.77
2023-03-06T04:30:16.320Z,974.76
2023-03-06T04:31:16.315Z,974.75
2023-03-06T04:32:16.304Z,974.74
2023-03-06T04:33:16.308Z,974.72
2023-03-06T04:34:16.303Z,974.72
2023-03-06T04:35:16.238Z,974.69
2023-03-06T04:36:16.233Z,974.69
2023-03-06T04:37:16.234Z,974.68
2023-03-06T04:38:16.222Z,974.66
2023-03-06T04:39:16.224Z,974.66
2023-03-06T04:40:16.242Z,974.65
2023-03-06T04:41:16.202Z,974.64
2023-03-06T04:42:16.198Z,974.62
2023-03-06T04:43:16.177Z,974.61
2023-03-06T04:44:16.174Z,974.61
2023-03-06T04:45:16.160Z,974.59
2023-03-06T04:46:16.380Z,974.57
2023-03-06T04:47:18.714Z,974.57
2023-03-06T04:48:16.122Z,974.56
2023-03-06T04:49:16.107Z,974.55
2023-03-06T04:50:16.095Z,974.56
2023-03-06T04:51:16.095Z,974.56
2023-03-06T04:52:16.115Z,974.55
2023-03-06T04:53:16.064Z,974.54
2023-03-06T04:54:18.004Z,974.53
2023-03-06T04:55:16.049Z,974.51
2023-03-06T04:56:16.055Z,974.51
2023-03-06T04:57:16.050Z,974.52
2023-03-06T04:58:16.059Z,974.52
2023-03-06T04:59:16.010Z,974.50
2023-03-06T05:00:16.002Z,974.49
2023-03-06T05:01:16.068Z,974.49
2023-03-06T05:02:16.048Z,974.47
2023-03-06T05:03:15.971Z,974.46
2023-03-06T05:04:15.979Z,974.45
2023-03-06T05:05:15.935Z,974.42
2023-03-06T05:06:15.935Z,974.43
2023-03-06T05:07:15.923Z,974.44
2023-03-06T05:08:15.918Z,974.44
2023-03-06T05:09:15.903Z,974.43
2023-03-06T05:10:15.928Z,974.41
2023-03-06T05:11:15.884Z,974.41
2023-03-06T05:12:15.889Z,974.41
2023-03-06T05:13:15.871Z,974.40
2023-03-06T05:14:15.879Z,974.39
2023-03-06T05:15:15.856Z,974.39
2023-03-06T05:16:15.931Z,974.39
2023-03-06T05:17:15.833Z,974.37
2023-03-06T05:18:15.837Z,974.39
2023-03-06T05:19:15.789Z,974.38
2023-03-06T05:20:15.792Z,974.39
2023-03-06T05:21:15.794Z,974.38
2023-03-06T05:22:15.780Z,974.39
2023-03-06T05:23:15.745Z,974.38
2023-03-06T05:24:15.739Z,974.37
2023-03-06T05:25:15.727Z,974.39
2023-03-06T05:26:15.728Z,974.39
2023-03-06T05:27:16.953Z,974.38
2023-03-06T05:28:15.712Z,974.37
2023-03-06T05:29:15.711Z,974.34
2023-03-06T05:30:15.708Z,974.34
2023-03-06T05:31:15.661Z,974.33
2023-03-06T05:32:15.716Z,974.34
2023-03-06T05:33:15.641Z,974.33
2023-03-06T05:34:15.660Z,974.33
2023-03-06T05:35:15.633Z,974.33
2023-03-06T05:36:15.614Z,974.33
2023-03-06T05:37:15.620Z,974.32
2023-03-06T05:38:15.632Z,974.33
2023-03-06T05:39:15.612Z,974.31
2023-03-06T05:40:15.576Z,974.31
2023-03-06T05:41:15.589Z,974.32
2023-03-06T05:42:15.565Z,974.30
2023-03-06T05:43:15.571Z,974.29
2023-03-06T05:44:15.561Z,974.31
2023-03-06T05:45:15.538Z,974.32
2023-03-06T05:46:15.596Z,974.30
2023-03-06T05:47:15.507Z,974.31
2023-03-06T05:48:15.528Z,974.29
2023-03-06T05:49:15.483Z,974.27
2023-03-06T05:50:15.481Z,974.26
2023-03-06T05:51:15.482Z,974.27
2023-03-06T05:52:15.471Z,974.25
2023-03-06T05:53:15.495Z,974.24
2023-03-06T05:54:15.452Z,974.25
2023-03-06T05:55:15.446Z,974.24
2023-03-06T05:56:15.433Z,974.23
2023-03-06T05:57:15.418Z,974.23
2023-03-06T05:58:15.400Z,974.23
2023-03-06T05:59:15.393Z,974.23
2023-03-06T06:00:15.379Z,974.23
2023-03-06T06:01:15.353Z,974.21
2023-03-06T06:02:15.420Z,974.21
2023-03-06T06:03:15.394Z,974.22
2023-03-06T06:04:15.359Z,974.21
2023-03-06T06:05:15.337Z,974.22
2023-03-06T06:06:15.316Z,974.21
2023-03-06T06:07:15.294Z,974.21
2023-03-06T06:08:15.290Z,974.22
2023-03-06T06:09:15.273Z,974.20
2023-03-06T06:10:15.305Z,974.22
2023-03-06T06:11:15.256Z,974.22
2023-03-06T06:12:15.253Z,974.22
2023-03-06T06:13:15.238Z,974.22
2023-03-06T06:14:15.231Z,974.20
2023-03-06T06:15:15.227Z,974.19
2023-03-06T06:16:15.295Z,974.21
2023-03-06T06:17:15.206Z,974.20
2023-03-06T06:18:15.209Z,974.21
2023-03-06T06:19:15.190Z,974.22
2023-03-06T06:20:15.181Z,974.22
2023-03-06T06:21:15.171Z,974.23
2023-03-06T06:22:15.175Z,974.24
2023-03-06T06:23:15.135Z,974.24
2023-03-06T06:24:15.116Z,974.26
2023-03-06T06:25:15.115Z,974.26
2023-03-06T06:26:15.098Z,974.26
2023-03-06T06:27:15.110Z,974.27
2023-03-06T06:28:15.078Z,974.29
2023-03-06T06:29:15.056Z,974.27
2023-03-06T06:30:15.053Z,974.27
2023-03-06T06:31:15.204Z,974.27
2023-03-06T06:32:15.094Z,974.26
2023-03-06T06:33:15.095Z,974.27
2023-03-06T06:34:15.027Z,974.27
2023-03-06T06:35:15.017Z,974.28
2023-03-06T06:36:15.001Z,974.28
2023-03-06T06:37:14.983Z,974.27
2023-03-06T06:38:14.975Z,974.28
2023-03-06T06:39:14.981Z,974.29
2023-03-06T06:40:14.988Z,974.28
2023-03-06T06:42:30.954Z,974.28
2023-03-06T06:43:14.927Z,974.28
2023-03-06T06:44:14.929Z,974.26
2023-03-06T06:45:14.945Z,974.26
2023-03-06T06:46:49.727Z,974.26
2023-03-06T06:47:24.398Z,974.26
2023-03-06T06:48:16.702Z,974.26
2023-03-06T06:49:14.843Z,974.25
2023-03-06T06:50:14.885Z,974.24
2023-03-06T06:51:14.836Z,974.24
2023-03-06T06:52:14.841Z,974.24
2023-03-06T06:53:14.804Z,974.24
2023-03-06T06:54:14.807Z,974.26
2023-03-06T06:55:14.799Z,974.27
2023-03-06T06:56:14.829Z,974.28
2023-03-06T06:57:14.832Z,974.29
2023-03-06T06:58:14.781Z,974.29
2023-03-06T06:59:17.092Z,974.28
2023-03-06T07:00:14.761Z,974.27
2023-03-06T07:01:14.782Z,974.26
2023-03-06T07:02:14.773Z,974.27
2023-03-06T07:03:14.702Z,974.27
2023-03-06T07:04:14.835Z,974.28
2023-03-06T07:05:14.693Z,974.29
2023-03-06T07:06:14.677Z,974.29
2023-03-06T07:07:14.679Z,974.29
2023-03-06T07:08:14.704Z,974.30
2023-03-06T07:09:14.670Z,974.28
2023-03-06T07:10:14.643Z,974.29
2023-03-06T07:11:14.634Z,974.29
2023-03-06T07:12:14.623Z,974.28
2023-03-06T07:13:14.611Z,974.27
2023-03-06T07:14:14.988Z,974.28
2023-03-06T07:15:14.618Z,974.28
2023-03-06T07:16:14.626Z,974.28
2023-03-06T07:17:14.585Z,974.26
2023-03-06T07:18:14.547Z,974.26
2023-03-06T07:19:14.568Z,974.25
2023-03-06T07:20:14.587Z,974.25
2023-03-06T07:21:14.549Z,974.25
2023-03-06T07:22:14.518Z,974.26
2023-03-06T07:23:14.553Z,974.26
2023-03-06T07:24:14.520Z,974.26
2023-03-06T07:25:14.496Z,974.24
2023-03-06T07:26:14.532Z,974.24
2023-03-06T07:27:14.458Z,974.23
2023-03-06T07:28:14.504Z,974.24
2023-03-06T07:29:14.442Z,974.24
2023-03-06T07:30:14.426Z,974.24
2023-03-06T07:31:14.484Z,974.26
2023-03-06T07:32:14.539Z,974.25
2023-03-06T07:33:14.402Z,974.25
2023-03-06T07:34:14.388Z,974.24
2023-03-06T07:35:22.014Z,974.27
2023-03-06T07:36:14.453Z,974.31
2023-03-06T07:37:14.389Z,974.31
2023-03-06T07:38:14.370Z,974.30
2023-03-06T07:39:14.345Z,974.28
2023-03-06T07:40:14.315Z,974.30
2023-03-06T07:41:14.343Z,974.30
2023-03-06T07:42:14.306Z,974.31
2023-03-06T07:43:19.424Z,974.33
2023-03-06T07:44:14.297Z,974.31
2023-03-06T07:45:14.287Z,974.30
2023-03-06T07:46:14.357Z,974.31
2023-03-06T07:47:14.297Z,974.32
2023-03-06T07:48:14.256Z,974.32
2023-03-06T07:49:14.271Z,974.32
2023-03-06T07:50:14.235Z,974.31
2023-03-06T07:51:14.209Z,974.32
2023-03-06T07:52:14.198Z,974.34
2023-03-06T07:53:14.186Z,974.33
2023-03-06T07:54:14.180Z,974.33
2023-03-06T07:55:14.217Z,974.36
2023-03-06T07:56:14.162Z,974.36
2023-03-06T07:57:14.149Z,974.37
2023-03-06T07:58:14.163Z,974.38
2023-03-06T07:59:14.155Z,974.40
2023-03-06T08:00:14.178Z,974.38
2023-03-06T08:01:14.142Z,974.38
2023-03-06T08:02:14.117Z,974.37
2023-03-06T08:03:14.159Z,974.36
2023-03-06T08:04:14.183Z,974.37
2023-03-06T08:05:14.091Z,974.37
2023-03-06T08:06:14.092Z,974.40
2023-03-06T08:07:14.090Z,974.42
2023-03-06T08:08:14.030Z,974.41
2023-03-06T08:09:14.031Z,974.42
2023-03-06T08:10:14.020Z,974.41
2023-03-06T08:11:14.018Z,974.41
2023-03-06T08:12:15.779Z,974.44
2023-03-06T08:13:14.021Z,974.44
2023-03-06T08:14:13.974Z,974.45
2023-03-06T08:15:13.970Z,974.47
2023-03-06T08:16:14.058Z,974.44
2023-03-06T08:17:13.932Z,974.43
2023-03-06T08:18:13.918Z,974.43
2023-03-06T08:19:13.930Z,974.43
2023-03-06T08:20:13.910Z,974.44
2023-03-06T08:21:13.908Z,974.44
2023-03-06T08:22:13.889Z,974.45
2023-03-06T08:23:13.883Z,974.45
2023-03-06T08:24:13.928Z,974.47
2023-03-06T08:25:13.875Z,974.47
2023-03-06T08:26:13.860Z,974.49
2023-03-06T08:27:13.840Z,974.52
2023-03-06T08:28:13.836Z,974.52
2023-03-06T08:29:13.830Z,974.52
2023-03-06T08:30:13.841Z,974.52
2023-03-06T08:31:13.845Z,974.52
2023-03-06T08:32:13.815Z,974.53
2023-03-06T08:33:13.762Z,974.53
2023-03-06T08:34:13.756Z,974.52
2023-03-06T08:35:13.763Z,974.53
2023-03-06T08:36:13.760Z,974.50
2023-03-06T08:37:13.771Z,974.51
2023-03-06T08:38:13.708Z,974.52
2023-03-06T08:39:13.713Z,974.51
2023-03-06T08:40:13.714Z,974.51
2023-03-06T08:41:13.702Z,974.50
2023-03-06T08:42:13.729Z,974.51
2023-03-06T08:43:14.307Z,974.52
2023-03-06T08:44:13.657Z,974.54
2023-03-06T08:45:13.639Z,974.55
2023-03-06T08:46:13.636Z,974.55
2023-03-06T08:47:13.642Z,974.57
2023-03-06T08:48:13.679Z,974.57
2023-03-06T08:49:13.621Z,974.56
2023-03-06T08:50:13.593Z,974.54
2023-03-06T08:51:13.606Z,974.55
2023-03-06T08:52:13.572Z,974.54
2023-03-06T08:53:13.581Z,974.53
2023-03-06T08:54:13.576Z,974.51
2023-03-06T08:55:15.078Z,974.48
2023-03-06T08:56:13.518Z,974.48
2023-03-06T08:57:13.529Z,974.47
2023-03-06T08:58:13.518Z,974.46
2023-03-06T08:59:13.527Z,974.44
2023-03-06T09:00:13.475Z,974.45
2023-03-06T09:01:13.529Z,974.46
2023-03-06T09:02:13.486Z,974.47
2023-03-06T09:03:13.464Z,974.48
2023-03-06T09:04:13.449Z,974.47
2023-03-06T09:05:13.462Z,974.47
2023-03-06T09:06:13.452Z,974.44
2023-03-06T09:07:13.424Z,974.47
2023-03-06T09:08:13.419Z,974.46
2023-03-06T09:09:13.461Z,974.46
2023-03-06T09:10:13.402Z,974.42
2023-03-06T09:11:13.407Z,974.41
2023-03-06T09:12:13.354Z,974.43
2023-03-06T09:13:13.346Z,974.44
2023-03-06T09:14:13.352Z,974.44
2023-03-06T09:15:13.329Z,974.46
2023-03-06T09:16:13.366Z,974.46
2023-03-06T09:17:13.348Z,974.45
2023-03-06T09:18:13.291Z,974.47
2023-03-06T09:19:13.307Z,974.47
2023-03-06T09:20:13.293Z,974.49
2023-03-06T09:21:13.286Z,974.46
2023-03-06T09:22:13.671Z,974.46
2023-03-06T09:23:13.255Z,974.48
2023-03-06T09:24:13.247Z,974.47
2023-03-06T09:25:13.255Z,974.48
2023-03-06T09:26:13.229Z,974.48
2023-03-06T09:27:13.211Z,974.52
2023-03-06T09:28:13.216Z,974.51
2023-03-06T09:29:13.248Z,974.54
2023-03-06T09:30:13.180Z,974.55
2023-03-06T09:31:13.272Z,974.54
2023-03-06T09:32:13.229Z,974.56
2023-03-06T09:33:13.139Z,974.58
2023-03-06T09:34:13.150Z,974.63
2023-03-06T09:35:13.135Z,974.63
2023-03-06T09:36:13.126Z,974.61
2023-03-06T09:37:13.123Z,974.66
2023-03-06T09:38:13.099Z,974.61
2023-03-06T09:39:13.120Z,974.58
2023-03-06T09:40:13.071Z,974.60
2023-03-06T09:41:13.084Z,974.65
2023-03-06T09:42:13.056Z,974.62
2023-03-06T09:43:13.046Z,974.70
2023-03-06T09:44:13.049Z,974.62
2023-03-06T09:45:13.036Z,974.62
2023-03-06T09:46:13.051Z,974.64
2023-03-06T09:47:13.004Z,974.63
2023-03-06T09:48:12.985Z,974.63
2023-03-06T09:49:13.005Z,974.66
2023-03-06T09:50:12.975Z,974.67
2023-03-06T09:51:12.958Z,974.68
2023-03-06T09:52:12.951Z,974.67
2023-03-06T09:53:12.921Z,974.64
2023-03-06T09:54:12.915Z,974.66
2023-03-06T09:55:12.942Z,974.67
2023-03-06T09:56:12.909Z,974.69
2023-03-06T09:57:12.917Z,974.76
2023-03-06T09:58:12.888Z,974.73
2023-03-06T09:59:12.946Z,974.79
2023-03-06T10:00:12.859Z,974.72
2023-03-06T10:01:12.863Z,974.78
2023-03-06T10:02:13.032Z,974.80
2023-03-06T10:03:12.993Z,974.65
2023-03-06T10:04:12.807Z,974.70
2023-03-06T10:05:12.879Z,974.68
2023-03-06T10:06:12.806Z,974.72
2023-03-06T10:07:12.775Z,974.71
2023-03-06T10:08:12.774Z,974.74
2023-03-06T10:09:12.753Z,974.74
2023-03-06T10:10:12.841Z,974.74
2023-03-06T10:11:12.747Z,974.71
2023-03-06T10:12:12.743Z,974.72
2023-03-06T10:13:12.723Z,974.82
2023-03-06T10:14:12.724Z,974.71
2023-03-06T10:15:12.714Z,974.73
2023-03-06T10:16:12.824Z,974.71
2023-03-06T10:17:12.677Z,974.71
2023-03-06T10:18:12.665Z,974.70
2023-03-06T10:19:12.653Z,974.75
2023-03-06T10:20:12.648Z,974.71
2023-03-06T10:21:19.138Z,974.68
2023-03-06T10:22:12.641Z,974.69
2023-03-06T10:23:12.620Z,974.68
2023-03-06T10:24:12.620Z,974.70
2023-03-06T10:25:12.600Z,974.70
2023-03-06T10:26:12.622Z,974.71
2023-03-06T10:27:12.615Z,974.68
2023-03-06T10:28:12.591Z,974.68
2023-03-06T10:29:12.562Z,974.69
2023-03-06T10:30:12.531Z,974.69
2023-03-06T10:31:12.685Z,974.67
2023-03-06T10:32:12.559Z,974.67
2023-03-06T10:33:12.515Z,974.67
2023-03-06T10:34:12.491Z,974.69
2023-03-06T10:35:12.491Z,974.66
2023-03-06T10:36:12.526Z,974.68
2023-03-06T10:37:12.487Z,974.66
2023-03-06T10:38:12.481Z,974.65
2023-03-06T10:39:12.465Z,974.64
2023-03-06T10:40:12.535Z,974.64
2023-03-06T10:41:12.453Z,974.61
2023-03-06T10:42:12.442Z,974.67
2023-03-06T10:43:12.579Z,974.65
2023-03-06T10:44:12.400Z,974.63
2023-03-06T10:45:12.385Z,974.65
2023-03-06T10:46:12.418Z,974.64
2023-03-06T10:47:12.369Z,974.66
2023-03-06T10:48:12.373Z,974.67
2023-03-06T10:49:12.362Z,974.67
2023-03-06T10:50:12.354Z,974.67
2023-03-06T10:51:18.099Z,974.66
2023-03-06T10:52:12.331Z,974.66
2023-03-06T10:53:12.329Z,974.63
2023-03-06T10:54:12.303Z,974.61
2023-03-06T10:55:12.752Z,974.60
2023-03-06T10:56:12.271Z,974.61
2023-03-06T10:57:12.259Z,974.63
2023-03-06T10:58:12.234Z,974.57
2023-03-06T10:59:12.270Z,974.56
2023-03-06T11:00:12.338Z,974.53
2023-03-06T11:01:12.364Z,974.51
2023-03-06T11:02:12.215Z,974.51
2023-03-06T11:03:12.198Z,974.48
2023-03-06T11:04:12.219Z,974.48
2023-03-06T11:05:12.176Z,974.48
2023-03-06T11:06:13.090Z,974.46
2023-03-06T11:07:12.168Z,974.46
2023-03-06T11:08:12.147Z,974.46
2023-03-06T11:09:12.129Z,974.43
2023-03-06T11:10:12.118Z,974.44
2023-03-06T11:11:12.117Z,974.42
2023-03-06T11:12:12.133Z,974.42
2023-03-06T11:13:12.103Z,974.43
2023-03-06T11:14:12.085Z,974.41
2023-03-06T11:15:12.077Z,974.40
2023-03-06T11:16:12.133Z,974.40
2023-03-06T11:17:12.065Z,974.39
2023-03-06T11:18:12.109Z,974.39
2023-03-06T11:19:12.039Z,974.37
2023-03-06T11:20:12.037Z,974.38
2023-03-06T11:21:12.016Z,974.42
2023-03-06T11:22:12.022Z,974.36
2023-03-06T11:23:12.033Z,974.39
2023-03-06T11:24:11.988Z,974.37
2023-03-06T11:25:11.975Z,974.38
2023-03-06T11:26:11.964Z,974.42
2023-03-06T11:27:11.944Z,974.44
2023-03-06T11:28:11.938Z,974.43
2023-03-06T11:29:12.030Z,974.46
2023-03-06T11:30:11.909Z,974.45
2023-03-06T11:31:11.915Z,974.46
2023-03-06T11:32:11.981Z,974.47
2023-03-06T11:33:11.888Z,974.52
2023-03-06T11:34:11.888Z,974.56
2023-03-06T11:35:11.917Z,974.53
2023-03-06T11:36:11.875Z,974.51
2023-03-06T11:37:11.841Z,974.50
2023-03-06T11:38:11.850Z,974.51
2023-03-06T11:39:14.463Z,974.50
2023-03-06T11:40:11.962Z,974.47
2023-03-06T11:41:11.856Z,974.45
2023-03-06T11:42:11.782Z,974.43
2023-03-06T11:43:11.811Z,974.41
2023-03-06T11:44:11.774Z,974.37
2023-03-06T11:45:11.755Z,974.39
2023-03-06T11:46:11.753Z,974.37
2023-03-06T11:47:11.760Z,974.33
2023-03-06T11:48:11.736Z,974.34
2023-03-06T11:49:11.738Z,974.30
2023-03-06T11:50:11.716Z,974.30
2023-03-06T11:51:11.702Z,974.30
2023-03-06T11:52:11.705Z,974.30
2023-03-06T11:53:11.691Z,974.28
2023-03-06T11:54:11.659Z,974.28
2023-03-06T11:55:11.656Z,974.27
2023-03-06T11:56:11.647Z,974.25
2023-03-06T11:57:11.660Z,974.23
2023-03-06T11:58:11.672Z,974.24
2023-03-06T11:59:11.630Z,974.23
2023-03-06T12:00:11.627Z,974.23
2023-03-06T12:01:11.616Z,974.23
2023-03-06T12:02:11.699Z,974.24
2023-03-06T12:03:11.606Z,974.24
2023-03-06T12:04:11.590Z,974.23
2023-03-06T12:05:11.584Z,974.19
2023-03-06T12:06:11.548Z,974.20
2023-03-06T12:07:11.526Z,974.18
2023-03-06T12:08:11.526Z,974.20
2023-03-06T12:09:11.560Z,974.17
2023-03-06T12:10:11.511Z,974.18
2023-03-06T12:11:11.495Z,974.18
2023-03-06T12:12:11.489Z,974.20
2023-03-06T12:13:11.481Z,974.19
2023-03-06T12:14:11.477Z,974.15
2023-03-06T12:15:11.500Z,974.16
2023-03-06T12:16:11.503Z,974.14
2023-03-06T12:17:11.438Z,974.14
2023-03-06T12:18:11.426Z,974.13
2023-03-06T12:19:11.420Z,974.09
2023-03-06T12:20:11.416Z,974.10
2023-03-06T12:21:11.413Z,974.09
2023-03-06T12:22:11.381Z,974.08
2023-03-06T12:23:15.354Z,974.07
2023-03-06T12:24:11.353Z,974.06
2023-03-06T12:25:11.378Z,974.06
2023-03-06T12:26:11.344Z,974.05
2023-03-06T12:27:11.365Z,974.05
2023-03-06T12:28:11.340Z,974.05
2023-03-06T12:29:11.319Z,974.05